createdAt,value
2018-06-14T00:00:03.118Z,0.00
2018-06-14T00:01:03.175Z,0.00
2018-06-14T00:02:56.160Z,0.00
2018-06-14T00:03:56.223Z,0.00
2018-06-14T00:05:49.214Z,0.00
2018-06-14T00:06:49.269Z,0.00
2018-06-14T00:08:42.257Z,0.00
2018-06-14T00:09:42.317Z,0.00
2018-06-14T00:11:35.350Z,0.00
2018-06-14T00:12:35.363Z,0.00
2018-06-14T00:14:28.360Z,0.00
2018-06-14T00:15:28.416Z,0.00
2018-06-14T00:17:21.428Z,0.00
2018-06-14T00:18:21.458Z,0.00
2018-06-14T00:20:14.452Z,0.00
2018-06-14T00:21:14.501Z,0.00
2018-06-14T00:23:07.489Z,0.00
2018-06-14T00:24:07.552Z,0.00
2018-06-14T00:26:00.546Z,0.00
2018-06-14T00:27:00.598Z,0.00
2018-06-14T00:28:53.584Z,0.00
2018-06-14T00:29:53.645Z,0.00
2018-06-14T00:31:46.640Z,0.00
2018-06-14T00:32:46.690Z,0.00
2018-06-14T00:34:39.674Z,0.00
2018-06-14T00:35:39.736Z,0.00
2018-06-14T00:37:32.730Z,0.00
2018-06-14T00:38:32.782Z,0.00
2018-06-14T00:40:25.772Z,0.00
2018-06-14T00:41:25.826Z,0.00
2018-06-14T00:43:18.811Z,0.00
2018-06-14T00:44:18.876Z,0.00
2018-06-14T00:46:11.868Z,0.00
2018-06-14T00:47:11.919Z,0.00
2018-06-14T00:49:04.907Z,0.00
2018-06-14T00:50:04.966Z,0.00
2018-06-14T00:51:57.961Z,0.00
2018-06-14T00:52:58.015Z,0.00
2018-06-14T00:54:51.004Z,0.00
2018-06-14T00:55:51.063Z,0.00
2018-06-14T00:57:44.059Z,0.00
2018-06-14T00:58:44.106Z,0.00
2018-06-14T01:00:37.104Z,0.00
2018-06-14T01:01:37.153Z,0.00
2018-06-14T01:03:30.138Z,0.00
2018-06-14T01:04:30.201Z,0.00
2018-06-14T01:06:23.190Z,0.00
2018-06-14T01:07:23.245Z,0.00
2018-06-14T01:09:16.227Z,0.00
2018-06-14T01:10:16.290Z,0.00
2018-06-14T01:12:09.284Z,0.00
2018-06-14T01:13:09.334Z,0.00
2018-06-14T01:15:02.321Z,0.00
2018-06-14T01:16:02.379Z,0.00
2018-06-14T01:17:55.377Z,0.00
2018-06-14T01:18:55.430Z,0.00
2018-06-14T01:20:48.412Z,0.00
2018-06-14T01:21:48.472Z,0.00
2018-06-14T01:23:41.467Z,0.00
2018-06-14T01:24:41.517Z,0.00
2018-06-14T01:26:34.509Z,0.00
2018-06-14T01:27:34.563Z,0.00
2018-06-14T01:29:27.591Z,0.00
2018-06-14T01:30:27.607Z,0.00
2018-06-14T01:32:20.602Z,0.00
2018-06-14T01:33:20.653Z,0.00
2018-06-14T01:35:13.636Z,0.00
2018-06-14T01:36:13.697Z,0.00
2018-06-14T01:38:06.691Z,0.00
2018-06-14T01:39:06.741Z,0.00
2018-06-14T01:40:59.725Z,0.00
2018-06-14T01:41:59.786Z,0.00
2018-06-14T01:43:52.782Z,0.00
2018-06-14T01:44:52.836Z,0.00
2018-06-14T01:46:45.820Z,0.00
2018-06-14T01:47:45.881Z,0.00
2018-06-14T01:49:38.876Z,0.00
2018-06-14T01:50:38.927Z,0.00
2018-06-14T01:52:31.924Z,0.00
2018-06-14T01:53:31.970Z,0.00
2018-06-14T01:55:24.958Z,0.00
2018-06-14T01:56:25.021Z,0.00
2018-06-14T01:58:18.011Z,0.00
2018-06-14T01:59:18.060Z,0.00
2018-06-14T02:01:11.044Z,0.00
2018-06-14T02:02:11.284Z,0.00
2018-06-14T02:04:04.100Z,0.00
2018-06-14T02:05:04.150Z,0.00
2018-06-14T02:06:57.141Z,0.00
2018-06-14T02:07:57.198Z,0.00
2018-06-14T02:09:50.194Z,0.00
2018-06-14T02:10:50.245Z,0.00
2018-06-14T02:12:43.231Z,0.00
2018-06-14T02:13:43.290Z,0.00
2018-06-14T02:15:36.286Z,0.00
2018-06-14T02:16:36.335Z,0.00
2018-06-14T02:18:29.331Z,0.00
2018-06-14T02:19:29.381Z,0.00
2018-06-14T02:21:22.365Z,0.00
2018-06-14T02:22:22.426Z,0.00
2018-06-14T02:24:15.421Z,0.00
2018-06-14T02:25:15.470Z,0.00
2018-06-14T02:27:08.453Z,4.00
2018-06-14T02:28:08.515Z,4.00
2018-06-14T02:30:01.505Z,0.00
2018-06-14T02:31:01.565Z,4.00
2018-06-14T02:32:54.554Z,4.00
2018-06-14T02:33:54.613Z,4.00
2018-06-14T02:35:47.611Z,4.00
2018-06-14T02:36:47.658Z,8.00
2018-06-14T02:38:40.644Z,8.00
2018-06-14T02:39:40.706Z,8.00
2018-06-14T02:41:33.696Z,12.00
2018-06-14T02:42:33.748Z,12.00
2018-06-14T02:44:26.751Z,12.00
2018-06-14T02:45:26.807Z,16.00
2018-06-14T02:47:19.792Z,24.00
2018-06-14T02:48:19.852Z,24.00
2018-06-14T02:50:12.844Z,32.00
2018-06-14T02:51:12.892Z,36.00
2018-06-14T02:53:05.881Z,44.00
2018-06-14T02:54:05.938Z,44.00
2018-06-14T02:55:58.927Z,60.00
2018-06-14T02:56:58.986Z,68.00
2018-06-14T02:58:51.966Z,88.00
2018-06-14T02:59:52.029Z,100.00
2018-06-14T03:01:45.022Z,116.00
2018-06-14T03:02:45.072Z,124.00
2018-06-14T03:04:38.056Z,144.00
2018-06-14T03:05:38.116Z,156.00
2018-06-14T03:07:31.111Z,180.00
2018-06-14T03:08:31.163Z,192.00
2018-06-14T03:10:24.162Z,212.00
2018-06-14T03:11:24.213Z,232.00
2018-06-14T03:13:17.705Z,256.00
2018-06-14T03:14:17.761Z,272.00
2018-06-14T03:16:10.753Z,296.00
2018-06-14T03:17:10.805Z,312.00
2018-06-14T03:19:03.789Z,344.00
2018-06-14T03:20:03.851Z,368.00
2018-06-14T03:21:56.838Z,408.00
2018-06-14T03:22:56.890Z,432.00
2018-06-14T03:24:49.876Z,500.00
2018-06-14T03:25:49.936Z,540.00
2018-06-14T03:27:42.929Z,604.00
2018-06-14T03:28:42.979Z,644.00
2018-06-14T03:30:35.973Z,728.00
2018-06-14T03:31:36.027Z,776.00
2018-06-14T03:33:29.006Z,880.00
2018-06-14T03:34:29.068Z,936.00
2018-06-14T03:36:22.080Z,1048.00
2018-06-14T03:37:22.111Z,1104.00
2018-06-14T03:39:15.099Z,1192.00
2018-06-14T03:40:15.155Z,1232.00
2018-06-14T03:42:08.148Z,1316.00
2018-06-14T03:43:08.202Z,1360.00
2018-06-14T03:45:01.187Z,1456.00
2018-06-14T03:46:01.245Z,1528.00
2018-06-14T03:47:54.241Z,1708.00
2018-06-14T03:48:54.293Z,1776.00
2018-06-14T03:50:47.276Z,1852.00
2018-06-14T03:51:47.336Z,1848.00
2018-06-14T03:53:40.333Z,1856.00
2018-06-14T03:54:40.381Z,1852.00
2018-06-14T03:56:33.374Z,1844.00
2018-06-14T03:57:33.425Z,1860.00
2018-06-14T03:59:26.409Z,1900.00
2018-06-14T04:00:26.469Z,1932.00
2018-06-14T04:02:19.463Z,2008.00
2018-06-14T04:03:19.514Z,2040.00
2018-06-14T04:05:12.498Z,2076.00
2018-06-14T04:06:12.560Z,2076.00
2018-06-14T04:08:05.552Z,2148.00
2018-06-14T04:09:05.607Z,2172.00
2018-06-14T04:10:58.591Z,2308.00
2018-06-14T04:11:58.651Z,2396.00
2018-06-14T04:13:51.648Z,2468.00
2018-06-14T04:14:51.702Z,2516.00
2018-06-14T04:16:44.687Z,2628.00
2018-06-14T04:17:44.747Z,2676.00
2018-06-14T04:19:37.744Z,2800.00
2018-06-14T04:20:37.792Z,2852.00
2018-06-14T04:22:30.787Z,2920.00
2018-06-14T04:23:30.837Z,2968.00
2018-06-14T04:25:24.332Z,3056.00
2018-06-14T04:26:24.389Z,3184.00
2018-06-14T04:28:17.384Z,3192.00
2018-06-14T04:29:17.439Z,3216.00
2018-06-14T04:31:10.431Z,3248.00
2018-06-14T04:32:10.482Z,3252.00
2018-06-14T04:34:03.478Z,3232.00
2018-06-14T04:35:03.529Z,3216.00
2018-06-14T04:36:56.513Z,3112.00
2018-06-14T04:37:56.573Z,3056.00
2018-06-14T04:39:49.570Z,3012.00
2018-06-14T04:40:49.630Z,3020.00
2018-06-14T04:42:42.619Z,3124.00
2018-06-14T04:43:42.673Z,3152.00
2018-06-14T04:45:35.657Z,3212.00
2018-06-14T04:46:35.726Z,3248.00
2018-06-14T04:48:28.714Z,3312.00
2018-06-14T04:49:28.765Z,3316.00
2018-06-14T04:51:21.751Z,3368.00
2018-06-14T04:52:21.810Z,3376.00
2018-06-14T04:54:14.807Z,3336.00
2018-06-14T04:55:14.857Z,3364.00
2018-06-14T04:57:07.842Z,3332.00
2018-06-14T04:58:07.901Z,3404.00
2018-06-14T05:00:00.899Z,3556.00
2018-06-14T05:01:00.950Z,3648.00
2018-06-14T05:02:54.463Z,3764.00
2018-06-14T05:03:54.005Z,3744.00
2018-06-14T05:05:46.997Z,3756.00
2018-06-14T05:06:47.061Z,3824.00
2018-06-14T05:08:40.055Z,3856.00
2018-06-14T05:09:40.107Z,4004.00
2018-06-14T05:11:33.096Z,4136.00
2018-06-14T05:12:33.158Z,4224.00
2018-06-14T05:14:26.154Z,4448.00
2018-06-14T05:15:26.205Z,4508.00
2018-06-14T05:17:19.198Z,4684.00
2018-06-14T05:18:19.253Z,4712.00
2018-06-14T05:20:12.246Z,4772.00
2018-06-14T05:21:12.300Z,4784.00
2018-06-14T05:23:05.810Z,4836.00
2018-06-14T05:24:05.869Z,4832.00
2018-06-14T05:25:58.861Z,4816.00
2018-06-14T05:26:58.914Z,4820.00
2018-06-14T05:28:51.918Z,4808.00
2018-06-14T05:29:51.956Z,4820.00
2018-06-14T05:31:44.950Z,4904.00
2018-06-14T05:32:45.006Z,4920.00
2018-06-14T05:34:38.002Z,4988.00
2018-06-14T05:35:38.052Z,4992.00
2018-06-14T05:37:31.040Z,5024.00
2018-06-14T05:38:31.102Z,5084.00
2018-06-14T05:40:24.104Z,5200.00
2018-06-14T05:41:24.157Z,5272.00
2018-06-14T05:43:17.152Z,5356.00
2018-06-14T05:44:17.214Z,5408.00
2018-06-14T05:46:10.209Z,5484.00
2018-06-14T05:47:10.264Z,5620.00
2018-06-14T05:49:03.247Z,5836.00
2018-06-14T05:50:03.308Z,5908.00
2018-06-14T05:51:56.306Z,6076.00
2018-06-14T05:52:56.358Z,6180.00
2018-06-14T05:54:49.353Z,6352.00
2018-06-14T05:55:49.407Z,6456.00
2018-06-14T05:57:42.395Z,6732.00
2018-06-14T05:58:42.457Z,6864.00
2018-06-14T06:00:35.449Z,7048.00
2018-06-14T06:01:35.508Z,7252.00
2018-06-14T06:03:28.492Z,7652.00
2018-06-14T06:04:28.551Z,7972.00
2018-06-14T06:06:21.548Z,8348.00
2018-06-14T06:07:21.601Z,8532.00
2018-06-14T06:09:14.589Z,9056.00
2018-06-14T06:10:14.649Z,9540.00
2018-06-14T06:12:07.641Z,10856.00
2018-06-14T06:13:07.696Z,11464.00
2018-06-14T06:15:00.696Z,12196.00
2018-06-14T06:16:00.748Z,12504.00
2018-06-14T06:17:53.743Z,13652.00
2018-06-14T06:18:53.805Z,14960.00
2018-06-14T06:20:46.801Z,20576.00
2018-06-14T06:21:46.861Z,21312.00
2018-06-14T06:23:39.848Z,21600.00
2018-06-14T06:24:39.911Z,20320.00
2018-06-14T06:26:32.908Z,22336.00
2018-06-14T06:27:32.967Z,20960.00
2018-06-14T06:29:25.974Z,24768.00
2018-06-14T06:30:26.030Z,25280.00
2018-06-14T06:32:19.050Z,25856.00
2018-06-14T06:33:19.153Z,26080.00
2018-06-14T06:35:12.097Z,29376.00
2018-06-14T06:36:12.161Z,30560.00
2018-06-14T06:38:05.164Z,35104.00
2018-06-14T06:39:05.228Z,37952.00
2018-06-14T06:40:58.236Z,46048.00
2018-06-14T06:41:58.301Z,48640.00
2018-06-14T06:43:51.302Z,52096.00
2018-06-14T06:44:51.368Z,52800.00
2018-06-14T06:46:44.381Z,58464.00
2018-06-14T06:47:44.442Z,61696.00
2018-06-14T06:49:37.450Z,71968.00
2018-06-14T06:50:37.519Z,80864.00
2018-06-14T06:52:30.531Z,90752.00
2018-06-14T06:53:30.594Z,94944.00
2018-06-14T06:55:23.610Z,91264.00
2018-06-14T06:56:23.674Z,87456.00
2018-06-14T06:58:16.683Z,78848.00
2018-06-14T06:59:16.754Z,70400.00
2018-06-14T07:01:09.769Z,60320.00
2018-06-14T07:02:09.835Z,61088.00
2018-06-14T07:04:02.844Z,55136.00
2018-06-14T07:05:02.916Z,51744.00
2018-06-14T07:06:55.932Z,50304.00
2018-06-14T07:07:56.008Z,47904.00
2018-06-14T07:09:49.011Z,44128.00
2018-06-14T07:10:49.079Z,45472.00
2018-06-14T07:12:42.095Z,48960.00
2018-06-14T07:13:42.162Z,51296.00
2018-06-14T07:15:36.753Z,49568.00
2018-06-14T07:16:36.781Z,50592.00
2018-06-14T07:18:29.791Z,54016.00
2018-06-14T07:19:29.860Z,56480.00
2018-06-14T07:21:22.941Z,55616.00
2018-06-14T07:22:22.958Z,57600.00
2018-06-14T07:24:15.962Z,59168.00
2018-06-14T07:25:16.032Z,58592.00
2018-06-14T07:27:09.057Z,59232.00
2018-06-14T07:28:09.123Z,59040.00
2018-06-14T07:30:02.137Z,60736.00
2018-06-14T07:31:02.211Z,63712.00
2018-06-14T07:32:55.234Z,66528.00
2018-06-14T07:33:55.301Z,65952.00
2018-06-14T07:35:48.323Z,61088.00
2018-06-14T07:36:48.395Z,61952.00
2018-06-14T07:38:41.414Z,57984.00
2018-06-14T07:39:41.485Z,57728.00
2018-06-14T07:41:34.512Z,54336.00
2018-06-14T07:42:34.576Z,53216.00
2018-06-14T07:44:27.594Z,47072.00
2018-06-14T07:45:27.670Z,53824.00
2018-06-14T07:47:20.693Z,45888.00
2018-06-14T07:48:20.761Z,51744.00
2018-06-14T07:50:13.778Z,51520.00
2018-06-14T07:51:13.856Z,51552.00
2018-06-14T07:53:06.927Z,56576.00
2018-06-14T07:54:06.975Z,54144.00
2018-06-14T07:55:59.964Z,52384.00
2018-06-14T07:57:00.040Z,56448.00
2018-06-14T07:58:53.062Z,54240.00
2018-06-14T07:59:53.127Z,54752.00
2018-06-14T08:01:46.157Z,50656.00
2018-06-14T08:02:46.236Z,52640.00
2018-06-14T08:04:50.868Z,53248.00
2018-06-14T08:05:50.939Z,56064.00
2018-06-14T08:07:43.970Z,53504.00
2018-06-14T08:08:44.031Z,52768.00
2018-06-14T08:10:37.047Z,55008.00
2018-06-14T08:11:37.132Z,55200.00
2018-06-14T08:13:30.153Z,57632.00
2018-06-14T08:14:30.225Z,58496.00
2018-06-14T08:16:23.251Z,22208.00
2018-06-14T08:17:23.324Z,85728.00
2018-06-14T08:19:16.348Z,127040.00
2018-06-14T08:20:16.419Z,110528.00
2018-06-14T08:22:09.454Z,106336.00
2018-06-14T08:23:09.527Z,104608.00
2018-06-14T08:25:02.552Z,107488.00
2018-06-14T08:26:02.621Z,107168.00
2018-06-14T08:27:55.647Z,103296.00
2018-06-14T08:28:55.717Z,107552.00
2018-06-14T08:30:48.737Z,116000.00
2018-06-14T08:31:48.850Z,102432.00
2018-06-14T08:33:41.846Z,114368.00
2018-06-14T08:34:41.915Z,116480.00
2018-06-14T08:36:34.937Z,119168.00
2018-06-14T08:37:35.016Z,118304.00
2018-06-14T08:39:28.045Z,110816.00
2018-06-14T08:40:28.113Z,121216.00
2018-06-14T08:42:21.161Z,113184.00
2018-06-14T08:43:21.228Z,117952.00
2018-06-14T08:45:14.255Z,114432.00
2018-06-14T08:46:14.320Z,115392.00
2018-06-14T08:48:07.350Z,114304.00
2018-06-14T08:49:07.423Z,111168.00
2018-06-14T08:51:00.450Z,107936.00
2018-06-14T08:52:00.524Z,75488.00
2018-06-14T08:53:53.556Z,105376.00
2018-06-14T08:54:53.627Z,15452.00
2018-06-14T08:56:46.662Z,46496.00
2018-06-14T08:57:46.786Z,18944.00
2018-06-14T08:59:39.759Z,100896.00
2018-06-14T09:00:39.833Z,57792.00
2018-06-14T09:02:32.872Z,97920.00
2018-06-14T09:03:32.920Z,18816.00
2018-06-14T09:05:26.475Z,16480.00
2018-06-14T09:06:26.552Z,13404.00
2018-06-14T09:08:19.543Z,14888.00
2018-06-14T09:09:19.613Z,97344.00
2018-06-14T09:11:12.658Z,98112.00
2018-06-14T09:12:12.702Z,27200.00
2018-06-14T09:14:05.721Z,13196.00
2018-06-14T09:15:05.829Z,18624.00
2018-06-14T09:16:58.807Z,97824.00
2018-06-14T09:17:58.877Z,49216.00
2018-06-14T09:19:51.905Z,22016.00
2018-06-14T09:20:51.979Z,93056.00
2018-06-14T09:22:44.989Z,17856.00
2018-06-14T09:23:45.067Z,17728.00
2018-06-14T09:25:38.113Z,89568.00
2018-06-14T09:26:38.148Z,95872.00
2018-06-14T09:28:31.167Z,93248.00
2018-06-14T09:29:31.242Z,89536.00
2018-06-14T09:31:24.265Z,14660.00
2018-06-14T09:32:24.333Z,40992.00
2018-06-14T09:34:17.356Z,19808.00
2018-06-14T09:35:17.421Z,27872.00
2018-06-14T09:37:10.438Z,18272.00
2018-06-14T09:38:10.510Z,20224.00
2018-06-14T09:40:03.531Z,14852.00
2018-06-14T09:41:03.595Z,13848.00
2018-06-14T09:42:56.689Z,12876.00
2018-06-14T09:43:56.675Z,12232.00
2018-06-14T09:45:49.696Z,12328.00
2018-06-14T09:46:49.760Z,11920.00
2018-06-14T09:48:42.988Z,12080.00
2018-06-14T09:49:42.863Z,12324.00
2018-06-14T09:51:35.880Z,12744.00
2018-06-14T09:52:35.945Z,18272.00
2018-06-14T09:54:28.949Z,14760.00
2018-06-14T09:55:29.018Z,13692.00
2018-06-14T09:57:22.029Z,13260.00
2018-06-14T09:58:22.091Z,12660.00
2018-06-14T10:00:15.105Z,11032.00
2018-06-14T10:01:15.175Z,10720.00
2018-06-14T10:03:08.178Z,11352.00
2018-06-14T10:04:08.245Z,9924.00
2018-06-14T10:06:01.278Z,11524.00
2018-06-14T10:07:01.317Z,13512.00
2018-06-14T10:08:54.325Z,12896.00
2018-06-14T10:09:54.390Z,13612.00
2018-06-14T10:11:47.400Z,13508.00
2018-06-14T10:12:47.462Z,12508.00
2018-06-14T10:14:40.468Z,13360.00
2018-06-14T10:15:40.534Z,14928.00
2018-06-14T10:17:33.542Z,20800.00
2018-06-14T10:18:33.602Z,17296.00
2018-06-14T10:20:26.615Z,12092.00
2018-06-14T10:21:26.675Z,11224.00
2018-06-14T10:23:19.681Z,14172.00
2018-06-14T10:24:19.740Z,14192.00
2018-06-14T10:26:12.754Z,18272.00
2018-06-14T10:27:12.818Z,18976.00
2018-06-14T10:29:05.819Z,19296.00
2018-06-14T10:30:05.889Z,19520.00
2018-06-14T10:31:58.899Z,18528.00
2018-06-14T10:32:58.965Z,17024.00
2018-06-14T10:34:51.968Z,17536.00
2018-06-14T10:35:52.033Z,19968.00
2018-06-14T10:37:45.047Z,18176.00
2018-06-14T10:38:45.113Z,15888.00
2018-06-14T10:40:38.150Z,14744.00
2018-06-14T10:41:38.224Z,14832.00
2018-06-14T10:43:31.326Z,17440.00
2018-06-14T10:44:31.262Z,16224.00
2018-06-14T10:46:24.423Z,13224.00
2018-06-14T10:47:24.806Z,15256.00
2018-06-14T10:49:17.407Z,14580.00
2018-06-14T10:50:17.452Z,14888.00
2018-06-14T10:52:10.473Z,12000.00
2018-06-14T10:53:10.531Z,10648.00
2018-06-14T10:55:03.530Z,15904.00
2018-06-14T10:56:03.600Z,15280.00
2018-06-14T10:57:56.627Z,15300.00
2018-06-14T10:58:56.697Z,17008.00
2018-06-14T11:00:49.677Z,15508.00
2018-06-14T11:01:49.739Z,16164.00
2018-06-14T11:03:42.746Z,16624.00
2018-06-14T11:04:42.807Z,18368.00
2018-06-14T11:06:35.820Z,18816.00
2018-06-14T11:07:35.883Z,18784.00
2018-06-14T11:09:28.886Z,18752.00
2018-06-14T11:10:28.955Z,18400.00
2018-06-14T11:12:21.965Z,17344.00
2018-06-14T11:13:22.062Z,18880.00
2018-06-14T11:15:15.027Z,20512.00
2018-06-14T11:16:15.089Z,20992.00
2018-06-14T11:18:08.102Z,21632.00
2018-06-14T11:19:08.169Z,21536.00
2018-06-14T11:21:01.168Z,21280.00
2018-06-14T11:22:01.233Z,20096.00
2018-06-14T11:23:54.244Z,18272.00
2018-06-14T11:24:54.305Z,18208.00
2018-06-14T11:26:47.333Z,17888.00
2018-06-14T11:27:47.380Z,19680.00
2018-06-14T11:29:40.390Z,21760.00
2018-06-14T11:30:40.450Z,22304.00
2018-06-14T11:32:33.464Z,22176.00
2018-06-14T11:33:33.530Z,21408.00
2018-06-14T11:35:26.548Z,19008.00
2018-06-14T11:36:26.593Z,19264.00
2018-06-14T11:38:19.600Z,19904.00
2018-06-14T11:39:19.667Z,20800.00
2018-06-14T11:41:12.671Z,20416.00
2018-06-14T11:42:12.734Z,20928.00
2018-06-14T11:44:05.743Z,18688.00
2018-06-14T11:45:05.806Z,19968.00
2018-06-14T11:46:58.808Z,21120.00
2018-06-14T11:47:58.877Z,21216.00
2018-06-14T11:49:51.892Z,20736.00
2018-06-14T11:50:51.945Z,19648.00
2018-06-14T11:52:44.967Z,16896.00
2018-06-14T11:53:45.036Z,16736.00
2018-06-14T11:55:38.037Z,19328.00
2018-06-14T11:56:38.106Z,19456.00
2018-06-14T11:58:31.117Z,18368.00
2018-06-14T11:59:31.180Z,17344.00
2018-06-14T12:01:24.232Z,19488.00
2018-06-14T12:02:24.271Z,19680.00
2018-06-14T12:04:17.324Z,19616.00
2018-06-14T12:05:17.350Z,19808.00
2018-06-14T12:07:10.351Z,18912.00
2018-06-14T12:08:10.392Z,17728.00
2018-06-14T12:10:03.409Z,17952.00
2018-06-14T12:11:03.528Z,18560.00
2018-06-14T12:12:56.467Z,19296.00
2018-06-14T12:13:56.556Z,18912.00
2018-06-14T12:16:01.200Z,17312.00
2018-06-14T12:17:01.237Z,18592.00
2018-06-14T12:18:54.246Z,19072.00
2018-06-14T12:19:54.306Z,18880.00
2018-06-14T12:21:47.309Z,18240.00
2018-06-14T12:22:47.377Z,18336.00
2018-06-14T12:24:40.414Z,17792.00
2018-06-14T12:25:40.776Z,17152.00
2018-06-14T12:27:33.988Z,18400.00
2018-06-14T12:28:34.140Z,18528.00
2018-06-14T12:30:27.074Z,17184.00
2018-06-14T12:31:27.120Z,16208.00
2018-06-14T12:33:20.635Z,15328.00
2018-06-14T12:34:20.704Z,14800.00
2018-06-14T12:36:14.212Z,14568.00
2018-06-14T12:37:14.277Z,15224.00
2018-06-14T12:39:07.294Z,12848.00
2018-06-14T12:40:07.350Z,12064.00
2018-06-14T12:42:00.368Z,12192.00
2018-06-14T12:43:00.428Z,11776.00
2018-06-14T12:44:55.245Z,11872.00
2018-06-14T12:45:55.047Z,12024.00
2018-06-14T12:47:48.020Z,13012.00
2018-06-14T12:48:48.088Z,13380.00
2018-06-14T12:50:41.094Z,14208.00
2018-06-14T12:51:41.149Z,13252.00
2018-06-14T12:53:34.156Z,12192.00
2018-06-14T12:54:34.226Z,12080.00
2018-06-14T12:56:27.230Z,11984.00
2018-06-14T12:57:27.294Z,12308.00
2018-06-14T12:59:20.295Z,12988.00
2018-06-14T13:00:20.366Z,13492.00
2018-06-14T13:02:13.368Z,14280.00
2018-06-14T13:03:13.432Z,14660.00
2018-06-14T13:05:06.467Z,15276.00
2018-06-14T13:06:06.508Z,15516.00
2018-06-14T13:07:59.517Z,15744.00
2018-06-14T13:08:59.598Z,15716.00
2018-06-14T13:10:52.593Z,15620.00
2018-06-14T13:11:52.650Z,15384.00
2018-06-14T13:13:45.655Z,14812.00
2018-06-14T13:14:45.724Z,14448.00
2018-06-14T13:16:38.771Z,14552.00
2018-06-14T13:17:38.793Z,13868.00
2018-06-14T13:19:31.791Z,12964.00
2018-06-14T13:20:31.877Z,13648.00
2018-06-14T13:22:24.885Z,13644.00
2018-06-14T13:23:24.927Z,13744.00
2018-06-14T13:25:17.932Z,13960.00
2018-06-14T13:26:17.997Z,13740.00
2018-06-14T13:28:11.005Z,12932.00
2018-06-14T13:29:11.068Z,13268.00
2018-06-14T13:31:04.081Z,14032.00
2018-06-14T13:32:04.152Z,13764.00
2018-06-14T13:33:57.154Z,12780.00
2018-06-14T13:34:57.217Z,12108.00
2018-06-14T13:36:50.231Z,11140.00
2018-06-14T13:37:50.293Z,10516.00
2018-06-14T13:39:43.301Z,9260.00
2018-06-14T13:40:43.365Z,8644.00
2018-06-14T13:42:36.403Z,8324.00
2018-06-14T13:43:36.440Z,8068.00
2018-06-14T13:45:29.949Z,7648.00
2018-06-14T13:46:30.017Z,7560.00
2018-06-14T13:48:23.020Z,7644.00
2018-06-14T13:49:23.083Z,7824.00
2018-06-14T13:51:16.115Z,8428.00
2018-06-14T13:52:16.160Z,8892.00
2018-06-14T13:54:09.166Z,9992.00
2018-06-14T13:55:09.227Z,10608.00
2018-06-14T13:57:02.304Z,11600.00
2018-06-14T13:58:02.299Z,11944.00
2018-06-14T13:59:55.302Z,12328.00
2018-06-14T14:00:55.374Z,12392.00
2018-06-14T14:02:48.368Z,12204.00
2018-06-14T14:03:49.388Z,12012.00
2018-06-14T14:05:41.439Z,12072.00
2018-06-14T14:06:41.508Z,11936.00
2018-06-14T14:08:34.565Z,11760.00
2018-06-14T14:09:34.573Z,11800.00
2018-06-14T14:11:27.595Z,11368.00
2018-06-14T14:12:27.654Z,11540.00
2018-06-14T14:14:20.660Z,11160.00
2018-06-14T14:15:20.763Z,10848.00
2018-06-14T14:17:13.735Z,10296.00
2018-06-14T14:18:13.787Z,10144.00
2018-06-14T14:20:06.792Z,9920.00
2018-06-14T14:21:06.856Z,9816.00
2018-06-14T14:22:59.862Z,9672.00
2018-06-14T14:23:59.965Z,9604.00
2018-06-14T14:25:52.930Z,9604.00
2018-06-14T14:26:52.996Z,9544.00
2018-06-14T14:28:46.013Z,9400.00
2018-06-14T14:29:46.070Z,9300.00
2018-06-14T14:31:39.072Z,9100.00
2018-06-14T14:32:39.133Z,8980.00
2018-06-14T14:34:32.145Z,8660.00
2018-06-14T14:35:32.203Z,8436.00
2018-06-14T14:37:25.209Z,7952.00
2018-06-14T14:38:25.270Z,7664.00
2018-06-14T14:40:18.280Z,7140.00
2018-06-14T14:41:18.343Z,6880.00
2018-06-14T14:43:11.352Z,6544.00
2018-06-14T14:44:11.416Z,6440.00
2018-06-14T14:46:04.418Z,6336.00
2018-06-14T14:47:04.474Z,6312.00
2018-06-14T14:48:57.480Z,6332.00
2018-06-14T14:49:57.541Z,6328.00
2018-06-14T14:51:50.539Z,6136.00
2018-06-14T14:52:50.606Z,5972.00
2018-06-14T14:54:43.629Z,5696.00
2018-06-14T14:55:43.678Z,5592.00
2018-06-14T14:57:36.795Z,5440.00
2018-06-14T14:58:36.776Z,5380.00
2018-06-14T15:00:29.755Z,5328.00
2018-06-14T15:01:29.818Z,5360.00
2018-06-14T15:03:22.826Z,5312.00
2018-06-14T15:04:22.887Z,5232.00
2018-06-14T15:06:15.931Z,4904.00
2018-06-14T15:07:15.952Z,4680.00
2018-06-14T15:09:08.959Z,4264.00
2018-06-14T15:10:09.017Z,4064.00
2018-06-14T15:12:02.247Z,3804.00
2018-06-14T15:13:02.121Z,3728.00
2018-06-14T15:14:55.099Z,3620.00
2018-06-14T15:15:55.167Z,3616.00
2018-06-14T15:17:48.174Z,3756.00
2018-06-14T15:18:48.229Z,3896.00
2018-06-14T15:20:41.241Z,4128.00
2018-06-14T15:21:41.304Z,4176.00
2018-06-14T15:23:34.302Z,4176.00
2018-06-14T15:24:34.370Z,4144.00
2018-06-14T15:26:28.374Z,4024.00
2018-06-14T15:27:28.549Z,3924.00
2018-06-14T15:29:21.543Z,3752.00
2018-06-14T15:30:21.508Z,3672.00
2018-06-14T15:32:14.507Z,3584.00
2018-06-14T15:33:14.571Z,3564.00
2018-06-14T15:35:07.578Z,3492.00
2018-06-14T15:36:07.636Z,3440.00
2018-06-14T15:38:00.639Z,3444.00
2018-06-14T15:39:00.709Z,3352.00
2018-06-14T15:40:53.713Z,3212.00
2018-06-14T15:41:53.764Z,3160.00
2018-06-14T15:43:46.772Z,3168.00
2018-06-14T15:44:46.906Z,3188.00
2018-06-14T15:46:39.932Z,3164.00
2018-06-14T15:47:39.932Z,3184.00
2018-06-14T15:49:32.901Z,3416.00
2018-06-14T15:50:33.227Z,3604.00
2018-06-14T15:52:25.963Z,3784.00
2018-06-14T15:53:26.023Z,3856.00
2018-06-14T15:55:19.031Z,3728.00
2018-06-14T15:56:19.083Z,3708.00
2018-06-14T15:58:12.078Z,3672.00
2018-06-14T15:59:12.147Z,3624.00
2018-06-14T16:01:05.215Z,3552.00
2018-06-14T16:02:05.215Z,3488.00
2018-06-14T16:03:58.210Z,3464.00
2018-06-14T16:04:58.329Z,3620.00
2018-06-14T16:06:51.495Z,3468.00
2018-06-14T16:07:51.345Z,3392.00
2018-06-14T16:09:44.336Z,3856.00
2018-06-14T16:10:44.399Z,3604.00
2018-06-14T16:12:37.404Z,2940.00
2018-06-14T16:13:37.463Z,2756.00
2018-06-14T16:15:30.464Z,2260.00
2018-06-14T16:16:30.525Z,2136.00
2018-06-14T16:18:23.540Z,2036.00
2018-06-14T16:19:23.585Z,1904.00
2018-06-14T16:21:16.598Z,2000.00
2018-06-14T16:22:16.644Z,2052.00
2018-06-14T16:24:09.644Z,1940.00
2018-06-14T16:25:09.709Z,1852.00
2018-06-14T16:27:02.709Z,1652.00
2018-06-14T16:28:02.771Z,1644.00
2018-06-14T16:29:55.770Z,1660.00
2018-06-14T16:30:55.837Z,1548.00
2018-06-14T16:32:48.839Z,1452.00
2018-06-14T16:33:48.905Z,1452.00
2018-06-14T16:35:41.892Z,1776.00
2018-06-14T16:36:41.957Z,1856.00
2018-06-14T16:38:34.958Z,1788.00
2018-06-14T16:39:35.017Z,2000.00
2018-06-14T16:41:28.033Z,2328.00
2018-06-14T16:42:28.078Z,2388.00
2018-06-14T16:44:21.074Z,2452.00
2018-06-14T16:45:21.134Z,2468.00
2018-06-14T16:47:14.137Z,2384.00
2018-06-14T16:48:14.195Z,2348.00
2018-06-14T16:50:07.188Z,2224.00
2018-06-14T16:51:07.254Z,2132.00
2018-06-14T16:53:00.253Z,1960.00
2018-06-14T16:54:00.312Z,1920.00
2018-06-14T16:55:53.308Z,2016.00
2018-06-14T16:56:53.372Z,2152.00
2018-06-14T16:58:46.371Z,2588.00
2018-06-14T16:59:46.429Z,2760.00
2018-06-14T17:01:39.428Z,2868.00
2018-06-14T17:02:39.485Z,2832.00
2018-06-14T17:04:32.480Z,2712.00
2018-06-14T17:05:32.545Z,2620.00
2018-06-14T17:07:25.543Z,2648.00
2018-06-14T17:08:25.603Z,2732.00
2018-06-14T17:10:18.594Z,3028.00
2018-06-14T17:11:18.658Z,3256.00
2018-06-14T17:13:11.657Z,3532.00
2018-06-14T17:14:11.714Z,3540.00
2018-06-14T17:16:04.753Z,3636.00
2018-06-14T17:17:04.776Z,3604.00
2018-06-14T17:18:57.779Z,3468.00
2018-06-14T17:19:57.837Z,3100.00
2018-06-14T17:21:50.835Z,2652.00
2018-06-14T17:22:50.895Z,2560.00
2018-06-14T17:24:43.899Z,2568.00
2018-06-14T17:25:43.954Z,2544.00
2018-06-14T17:27:36.954Z,2452.00